Time;durP1;ratioP1;P1;durP2;ratioP2;P2;SDS_P1;SDS_P2;PMS_P1;PMS_P2;Temp;Humidity;BMP_temperature;BMP_pressure;BME280_temperature;BME280_humidity;BME280_pressure;Samples;Min_cycle;Max_cycle;Signal;HPM_P1;HPM_P2
2021/07/20 00:00:57;;;;;;;9.13;5.60;;;;;;;22.98;54.07;102051.63;5015661;28;20030;-63
2021/07/20 00:03:23;;;;;;;8.05;5.47;;;;;;;22.99;54.09;102050.66;5014764;28;20030;-62
2021/07/20 00:05:48;;;;;;;7.93;5.18;;;;;;;22.98;54.07;102047.16;5015740;28;20022;-62
2021/07/20 00:08:13;;;;;;;8.23;5.70;;;;;;;22.97;54.04;102050.81;5015697;28;20080;-60
2021/07/20 00:10:49;;;;;;;8.57;5.20;;;;;;;22.99;54.08;102056.00;5014466;28;20026;-61
2021/07/20 00:13:21;;;;;;;7.97;5.57;;;;;;;22.98;53.93;102051.63;5015585;28;20108;-62
2021/07/20 00:15:47;;;;;;;7.63;5.40;;;;;;;22.96;54.17;102050.94;5015572;28;20084;-62
2021/07/20 00:18:15;;;;;;;7.50;5.20;;;;;;;22.97;53.86;102052.59;5014990;28;20030;-61
2021/07/20 00:20:42;;;;;;;8.00;5.03;;;;;;;22.95;54.02;102054.53;5015391;28;20223;-62
2021/07/20 00:23:09;;;;;;;8.07;4.97;;;;;;;22.96;54.14;102051.75;5015389;28;20537;-62
2021/07/20 00:25:35;;;;;;;8.50;5.55;;;;;;;22.95;53.95;102051.88;5014490;28;20100;-61
2021/07/20 00:28:00;;;;;;;8.45;5.70;;;;;;;22.95;53.52;102057.19;5015462;28;20450;-62
2021/07/20 00:30:27;;;;;;;8.05;5.05;;;;;;;22.92;53.76;102052.13;5015033;28;20068;-62
2021/07/20 00:32:52;;;;;;;7.35;5.20;;;;;;;22.93;53.75;102051.19;5013312;28;20026;-61
2021/07/20 00:35:17;;;;;;;8.75;5.55;;;;;;;22.92;53.70;102055.66;5014779;28;20076;-62
2021/07/20 00:37:43;;;;;;;8.40;5.43;;;;;;;22.93;54.02;102056.50;5015077;28;20034;-61
2021/07/20 00:40:12;;;;;;;7.35;5.07;;;;;;;22.92;53.45;102053.00;5014460;28;20156;-61
2021/07/20 00:42:37;;;;;;;8.48;5.20;;;;;;;22.91;53.53;102059.28;5014960;28;20080;-62
2021/07/20 00:45:06;;;;;;;8.05;5.50;;;;;;;22.91;53.55;102053.13;5014214;28;20256;-62
2021/07/20 00:47:31;;;;;;;7.95;5.53;;;;;;;22.90;53.73;102054.91;5014569;28;20061;-61
2021/07/20 00:49:56;;;;;;;8.43;5.18;;;;;;;22.91;53.48;102058.44;5014731;28;20077;-63
2021/07/20 00:52:22;;;;;;;7.72;5.13;;;;;;;22.90;53.60;102054.09;5013666;28;20034;-61
2021/07/20 00:54:47;;;;;;;7.63;5.32;;;;;;;22.89;53.49;102052.38;5014736;28;20103;-62
2021/07/20 00:57:12;;;;;;;7.72;5.22;;;;;;;22.89;53.28;102052.38;5014747;28;20086;-62
2021/07/20 00:59:39;;;;;;;7.85;5.15;;;;;;;22.88;53.40;102056.88;5013894;28;20022;-61
2021/07/20 01:02:05;;;;;;;7.05;4.90;;;;;;;22.87;53.34;102057.84;5014634;28;20437;-62
2021/07/20 01:04:33;;;;;;;7.93;5.40;;;;;;;22.86;53.16;102047.31;5014328;28;20095;-61
2021/07/20 01:07:00;;;;;;;9.07;5.53;;;;;;;22.87;53.15;102047.19;5013875;28;20053;-62
2021/07/20 01:09:27;;;;;;;8.45;5.55;;;;;;;22.86;53.33;102048.19;5014034;28;20476;-61
2021/07/20 01:11:54;;;;;;;7.93;5.60;;;;;;;22.85;53.45;102043.00;5014538;28;20076;-61
2021/07/20 01:14:20;;;;;;;7.65;5.00;;;;;;;22.82;53.36;102036.94;5013163;28;20026;-61
2021/07/20 01:16:49;;;;;;;8.20;5.57;;;;;;;22.84;53.48;102039.47;5014292;28;20032;-62
2021/07/20 01:19:16;;;;;;;7.30;4.90;;;;;;;22.81;53.23;102037.94;5013923;28;20026;-61
2021/07/20 01:21:42;;;;;;;8.23;5.15;;;;;;;22.84;53.23;102044.78;5013485;28;20105;-61
2021/07/20 01:24:16;;;;;;;8.50;5.80;;;;;;;22.82;52.94;102047.59;5014293;28;20030;-61
2021/07/20 01:26:43;;;;;;;8.65;5.45;;;;;;;22.81;52.97;102040.59;5014281;28;20022;-62
2021/07/20 01:29:10;;;;;;;8.95;5.47;;;;;;;22.83;53.29;102045.78;5013255;28;20037;-62
2021/07/20 01:31:39;;;;;;;8.40;5.82;;;;;;;22.81;53.32;102039.72;5013626;28;20458;-61
2021/07/20 01:34:09;;;;;;;8.50;5.68;;;;;;;22.81;53.04;102043.25;5013758;28;20528;-61
2021/07/20 01:36:37;;;;;;;7.50;4.70;;;;;;;22.77;53.03;102038.31;5013338;28;20038;-62
2021/07/20 01:39:09;;;;;;;8.55;5.45;;;;;;;22.81;52.98;102050.38;5013840;28;20026;-61
2021/07/20 01:41:36;;;;;;;7.65;5.40;;;;;;;22.80;53.35;102046.88;5012221;28;20038;-61
2021/07/20 01:44:05;;;;;;;8.13;5.57;;;;;;;22.78;53.21;102040.84;5013036;28;20022;-62
2021/07/20 01:46:36;;;;;;;9.55;5.32;;;;;;;22.76;53.07;102039.28;5013109;28;20471;-62
2021/07/20 01:49:04;;;;;;;9.48;5.40;;;;;;;22.78;53.07;102042.63;5012830;28;20050;-62
2021/07/20 01:51:31;;;;;;;7.90;5.57;;;;;;;22.77;52.82;102046.28;5013573;28;20428;-61
2021/07/20 01:53:59;;;;;;;8.00;5.30;;;;;;;22.76;52.91;102045.41;5013485;28;20469;-62
2021/07/20 01:56:24;;;;;;;8.45;5.50;;;;;;;22.74;52.85;102038.56;5012753;28;20081;-62
2021/07/20 01:58:50;;;;;;;8.30;5.47;;;;;;;22.75;52.78;102040.25;5013509;28;20109;-62
2021/07/20 02:01:37;;;;;;;9.00;5.43;;;;;;;22.75;53.04;102041.09;5013145;28;20025;-61
2021/07/20 02:09:31;;;;;;;7.95;5.30;;;;;;;22.74;53.12;102051.84;5012491;28;20445;-61
2021/07/20 02:11:58;;;;;;;7.72;5.40;;;;;;;22.74;52.80;102041.22;5013779;28;20053;-62
2021/07/20 02:14:28;;;;;;;7.75;4.88;;;;;;;22.72;53.04;102049.31;5013141;28;20049;-62
2021/07/20 02:16:56;;;;;;;7.85;5.30;;;;;;;22.73;52.67;102050.16;5012694;28;20041;-62
2021/07/20 02:19:32;;;;;;;8.02;5.25;;;;;;;22.72;52.64;102049.31;5012999;28;20029;-61
2021/07/20 02:22:02;;;;;;;11.15;5.68;;;;;;;22.72;52.67;102046.66;5013235;28;20033;-63
2021/07/20 02:24:32;;;;;;;9.77;5.47;;;;;;;22.71;53.11;102052.94;5012025;28;20489;-62
2021/07/20 02:27:00;;;;;;;7.95;5.22;;;;;;;22.72;53.13;102051.16;5013279;28;20030;-62
2021/07/20 02:29:26;;;;;;;8.02;5.07;;;;;;;22.69;52.92;102044.25;5012678;28;20030;-62
2021/07/20 02:31:56;;;;;;;8.43;5.68;;;;;;;22.69;52.65;102049.56;5012145;28;20121;-62
2021/07/20 02:34:22;;;;;;;9.07;6.03;;;;;;;22.70;52.61;102045.09;5012598;28;20091;-61
2021/07/20 02:36:49;;;;;;;8.57;5.65;;;;;;;22.69;52.81;102046.91;5013096;28;20018;-61
2021/07/20 02:39:15;;;;;;;8.15;5.53;;;;;;;22.69;52.76;102051.41;5012107;28;20405;-62
2021/07/20 02:41:41;;;;;;;7.97;5.18;;;;;;;22.66;52.89;102052.47;5012923;28;20018;-62
2021/07/20 02:44:10;;;;;;;7.55;5.35;;;;;;;22.66;52.76;102049.00;5012656;28;20331;-62
2021/07/20 02:46:41;;;;;;;7.78;5.43;;;;;;;22.66;52.56;102049.81;5011708;28;20497;-61
2021/07/20 02:49:06;;;;;;;8.13;5.43;;;;;;;22.68;52.75;102052.34;5012475;28;20053;-62
2021/07/20 02:51:33;;;;;;;7.75;5.15;;;;;;;22.66;52.70;102057.78;5011869;28;20458;-62
2021/07/20 02:54:02;;;;;;;8.80;5.75;;;;;;;22.66;52.49;102054.31;5012414;28;20030;-62
2021/07/20 02:56:32;;;;;;;8.07;5.65;;;;;;;22.66;52.44;102056.97;5011896;28;20032;-61
2021/07/20 02:59:05;;;;;;;10.60;5.32;;;;;;;22.64;52.62;102047.28;5013842;28;20026;-62
2021/07/20 03:01:35;;;;;;;9.97;5.40;;;;;;;22.64;52.61;102044.63;5016675;28;20074;-62
2021/07/20 03:04:01;;;;;;;8.95;5.57;;;;;;;22.64;52.49;102043.81;5016711;28;20033;-62
2021/07/20 03:06:27;;;;;;;7.63;5.30;;;;;;;22.63;52.33;102032.31;5016838;28;20486;-62
2021/07/20 03:08:58;;;;;;;8.60;5.65;;;;;;;22.62;52.35;102040.41;5018409;28;20029;-61
2021/07/20 03:11:27;;;;;;;7.85;5.30;;;;;;;22.60;52.73;102043.19;5016415;28;20078;-62
2021/07/20 03:13:56;;;;;;;8.77;5.70;;;;;;;22.62;52.54;102045.72;5014636;28;20057;-62
2021/07/20 03:16:23;;;;;;;7.97;5.07;;;;;;;22.62;52.70;102051.03;5015878;28;20018;-61
2021/07/20 03:18:52;;;;;;;7.68;5.15;;;;;;;22.59;52.67;102049.50;5017950;28;20036;-62
2021/07/20 03:21:18;;;;;;;8.13;5.43;;;;;;;22.60;52.64;102045.84;5016732;28;20090;-61
2021/07/20 03:23:45;;;;;;;7.97;5.90;;;;;;;22.59;52.47;102040.69;5016828;28;20467;-61
2021/07/20 03:26:12;;;;;;;9.35;5.68;;;;;;;22.60;52.74;102045.00;5016631;28;20045;-61
2021/07/20 03:28:39;;;;;;;8.23;5.95;;;;;;;22.59;52.48;102046.00;5012222;28;20385;-62
2021/07/20 03:31:05;;;;;;;8.20;5.57;;;;;;;22.58;52.16;102046.97;5012411;28;20080;-61
2021/07/20 03:33:31;;;;;;;8.23;5.35;;;;;;;22.56;52.41;102046.25;5012360;28;20519;-62
2021/07/20 03:35:57;;;;;;;10.38;5.88;;;;;;;22.56;52.33;102041.75;5011745;28;20026;-61
2021/07/20 03:38:23;;;;;;;9.00;5.60;;;;;;;22.58;52.43;102042.47;5012183;28;20021;-62
2021/07/20 03:40:51;;;;;;;8.07;5.25;;;;;;;22.57;52.34;102038.16;5011576;28;20125;-62
2021/07/20 03:43:22;;;;;;;7.90;5.38;;;;;;;22.57;52.40;102037.28;5011800;28;20026;-62
2021/07/20 03:45:48;;;;;;;7.72;5.13;;;;;;;22.54;52.42;102035.75;5012216;28;20033;-62
2021/07/20 03:48:14;;;;;;;10.18;5.93;;;;;;;22.56;52.39;102040.94;5011306;28;20054;-62
2021/07/20 03:50:41;;;;;;;7.93;5.22;;;;;;;22.57;52.54;102042.59;5011921;28;20032;-61
2021/07/20 03:53:08;;;;;;;8.68;5.90;;;;;;;22.56;52.41;102040.94;5012206;28;20041;-61
2021/07/20 03:55:36;;;;;;;8.07;5.60;;;;;;;22.54;52.51;102041.06;5010901;28;20466;-61
2021/07/20 03:58:03;;;;;;;8.05;5.80;;;;;;;22.55;52.25;102039.22;5012034;28;20037;-61
2021/07/20 04:00:33;;;;;;;7.78;5.30;;;;;;;22.54;52.26;102033.09;5011869;28;20022;-61
2021/07/20 04:03:42;;;;;;;8.55;5.68;;;;;;;22.54;52.11;102037.53;5011205;28;20030;-62
2021/07/20 04:05:55;;;;;;;8.10;5.22;;;;;;;22.53;52.30;102042.00;5001840;28;20088;-62
2021/07/20 04:08:23;;;;;;;8.38;5.55;;;;;;;22.54;52.32;102042.84;5015240;28;20091;-62
2021/07/20 04:10:50;;;;;;;7.28;5.13;;;;;;;22.54;52.00;102050.81;5014817;28;20032;-61
2021/07/20 04:13:16;;;;;;;10.13;5.80;;;;;;;22.53;52.17;102047.31;5015158;28;20033;-62
2021/07/20 04:15:52;;;;;;;8.40;5.55;;;;;;;22.52;52.09;102044.78;5015569;28;20033;-63
2021/07/20 04:18:21;;;;;;;7.90;5.38;;;;;;;22.53;52.32;102046.50;5014862;28;20493;-61
2021/07/20 04:20:47;;;;;;;7.82;5.50;;;;;;;22.52;52.48;102050.09;5015164;28;20058;-62
2021/07/20 04:23:20;;;;;;;7.93;5.32;;;;;;;22.51;52.26;102049.28;5014683;28;20022;-61
2021/07/20 04:25:47;;;;;;;7.97;5.45;;;;;;;22.51;52.20;102045.75;5015349;28;20030;-61
2021/07/20 04:28:14;;;;;;;8.93;5.85;;;;;;;22.51;52.09;102049.28;5015117;28;20466;-62
2021/07/20 04:30:41;;;;;;;8.48;5.40;;;;;;;22.49;52.01;102048.53;5014281;28;20053;-62
2021/07/20 04:33:08;;;;;;;8.35;5.85;;;;;;;22.50;51.96;102050.22;5014984;28;20026;-61
2021/07/20 04:35:33;;;;;;;7.70;5.38;;;;;;;22.49;52.40;102048.53;5014898;28;20024;-62
2021/07/20 04:38:01;;;;;;;8.80;5.72;;;;;;;22.49;51.83;102053.00;5014439;28;20022;-61
2021/07/20 04:40:27;;;;;;;7.60;5.28;;;;;;;22.49;52.23;102048.53;5014648;28;20462;-61
2021/07/20 04:42:55;;;;;;;8.15;5.97;;;;;;;22.50;52.22;102050.22;5014957;28;20445;-61
2021/07/20 04:45:22;;;;;;;7.82;5.53;;;;;;;22.49;51.97;102051.19;5013778;28;20536;-61
2021/07/20 04:47:47;;;;;;;9.30;5.97;;;;;;;22.46;52.22;102054.09;5014406;28;20034;-62
2021/07/20 04:50:14;;;;;;;7.80;5.18;;;;;;;22.46;52.29;102052.31;5014673;28;20394;-62
2021/07/20 04:52:43;;;;;;;8.20;5.32;;;;;;;22.50;51.85;102068.00;5014056;28;20026;-61
2021/07/20 04:55:10;;;;;;;9.82;6.45;;;;;;;22.47;52.00;102061.09;5014666;28;20040;-61
2021/07/20 04:57:36;;;;;;;7.97;5.25;;;;;;;22.49;51.88;102071.59;5014285;28;20026;-62
2021/07/20 05:00:05;;;;;;;9.43;5.90;;;;;;;22.49;52.04;102063.63;5013704;28;20030;-60
2021/07/20 05:02:32;;;;;;;8.65;5.78;;;;;;;22.46;51.85;102057.59;5013919;28;20022;-60
2021/07/20 05:05:01;;;;;;;8.57;5.90;;;;;;;22.48;52.24;102069.91;5014438;28;20033;-59
2021/07/20 05:07:28;;;;;;;7.45;5.38;;;;;;;22.46;52.29;102067.38;5013406;28;20466;-61
2021/07/20 05:09:54;;;;;;;11.35;6.07;;;;;;;22.48;52.13;102070.78;5014476;28;20022;-61
2021/07/20 05:12:20;;;;;;;8.23;5.40;;;;;;;22.48;51.97;102067.25;5012971;28;20048;-61
2021/07/20 05:14:45;;;;;;;10.20;5.78;;;;;;;22.44;51.96;102064.84;5014106;28;20511;-62
2021/07/20 05:17:10;;;;;;;7.85;5.25;;;;;;;22.48;52.01;102067.25;5013859;28;20105;-61
2021/07/20 05:19:37;;;;;;;9.07;6.10;;;;;;;22.45;52.15;102071.84;5012860;28;20152;-61
2021/07/20 05:22:03;;;;;;;8.07;5.35;;;;;;;22.46;52.29;102070.91;5014279;28;20046;-69
2021/07/20 05:24:31;;;;;;;9.07;5.78;;;;;;;22.45;52.22;102065.69;5013815;28;20490;-61
2021/07/20 05:26:57;;;;;;;8.68;5.70;;;;;;;22.45;52.08;102068.34;5013189;28;20026;-63
2021/07/20 05:29:24;;;;;;;8.45;5.53;;;;;;;22.46;52.42;102076.19;5013566;28;20022;-62
2021/07/20 05:31:50;;;;;;;8.93;5.78;;;;;;;22.44;52.32;102062.19;5013826;28;20466;-61
2021/07/20 05:34:17;;;;;;;8.60;5.50;;;;;;;22.45;52.32;102071.84;5012755;28;20516;-61
2021/07/20 05:36:43;;;;;;;11.00;6.47;;;;;;;22.45;52.46;102065.69;5013860;28;20548;-61
2021/07/20 05:39:11;;;;;;;8.18;5.57;;;;;;;22.48;52.14;102072.56;5013883;28;20049;-62
2021/07/20 05:41:46;;;;;;;9.70;5.90;;;;;;;22.48;52.43;102076.09;5012747;28;20415;-62
2021/07/20 05:44:13;;;;;;;8.90;5.70;;;;;;;22.48;52.13;102075.22;5012893;28;20053;-62
2021/07/20 05:46:40;;;;;;;8.88;5.97;;;;;;;22.44;52.34;102074.63;5013331;28;20026;-62
2021/07/20 05:49:05;;;;;;;9.32;5.90;;;;;;;22.45;52.31;102076.31;5012712;28;20046;-62
2021/07/20 05:51:31;;;;;;;8.85;6.25;;;;;;;22.48;52.22;102083.19;5013260;28;20389;-63
2021/07/20 05:53:58;;;;;;;9.13;6.40;;;;;;;22.48;52.28;102086.72;5013774;28;20029;-62
2021/07/20 05:56:29;;;;;;;8.30;5.55;;;;;;;22.44;52.25;102080.78;5012566;28;20026;-62
2021/07/20 05:58:54;;;;;;;9.18;5.95;;;;;;;22.49;52.30;102090.19;5013702;28;20101;-63
2021/07/20 06:01:20;;;;;;;9.90;6.03;;;;;;;22.49;52.27;102090.19;5013273;28;20101;-62
2021/07/20 06:03:46;;;;;;;8.77;5.82;;;;;;;22.49;52.45;102090.19;5012906;28;20022;-62
2021/07/20 06:06:12;;;;;;;8.45;5.75;;;;;;;22.50;52.16;102099.88;5013479;28;20029;-62
2021/07/20 06:08:38;;;;;;;8.30;5.55;;;;;;;22.49;52.36;102098.16;5012033;28;20028;-62
2021/07/20 06:11:08;;;;;;;9.48;6.32;;;;;;;22.49;51.86;102095.50;5012185;28;20050;-63
2021/07/20 06:13:39;;;;;;;8.20;5.90;;;;;;;22.44;51.93;102088.75;5012863;28;20037;-62
2021/07/20 06:16:09;;;;;;;9.13;5.90;;;;;;;22.48;52.14;102097.34;5012093;28;20504;-61
2021/07/20 06:18:36;;;;;;;9.48;5.93;;;;;;;22.50;52.22;102102.53;5012500;28;20042;-62
2021/07/20 06:21:05;;;;;;;10.20;6.50;;;;;;;22.50;52.53;102102.53;5012983;28;20437;-61
2021/07/20 06:23:34;;;;;;;9.68;6.65;;;;;;;22.49;51.29;102101.66;5011729;28;20022;-61
2021/07/20 06:26:00;;;;;;;10.55;6.68;;;;;;;22.42;50.61;102098.66;5013076;28;20030;-61
2021/07/20 06:28:28;;;;;;;14.77;7.30;;;;;;;22.41;49.65;102097.00;5012684;28;20029;-60
2021/07/20 06:30:54;;;;;;;12.57;7.45;;;;;;;22.39;49.16;102100.72;5011576;28;20458;-59
2021/07/20 06:33:21;;;;;;;12.27;7.57;;;;;;;22.35;48.72;102102.78;5012376;28;20416;-62
2021/07/20 06:35:47;;;;;;;12.52;7.53;;;;;;;22.35;48.66;102110.75;5012802;28;20088;-62
2021/07/20 06:38:19;;;;;;;11.60;7.47;;;;;;;22.32;47.92;102110.13;5012174;28;20744;-63
2021/07/20 06:41:00;;;;;;;11.77;7.88;;;;;;;22.32;48.10;102112.78;5013141;28;20061;-62
2021/07/20 06:43:26;;;;;;;14.00;7.63;;;;;;;22.31;47.90;102111.94;5012520;28;20036;-59
2021/07/20 06:45:52;;;;;;;12.45;7.65;;;;;;;22.31;47.84;102113.78;5012225;28;20076;-61
2021/07/20 06:48:20;;;;;;;12.70;8.23;;;;;;;22.30;47.70;102110.25;5012215;28;20053;-61
2021/07/20 06:50:48;;;;;;;13.15;7.80;;;;;;;22.30;47.87;102115.56;5011904;28;20030;-59
2021/07/20 06:53:14;;;;;;;11.68;7.65;;;;;;;22.29;47.80;102113.84;5012833;28;20073;-60
2021/07/20 06:55:54;;;;;;;11.35;7.88;;;;;;;22.29;47.29;102116.50;5012865;28;20031;-61
2021/07/20 06:58:21;;;;;;;12.40;7.60;;;;;;;22.28;47.36;102113.00;5011708;28;20034;-62
2021/07/20 07:00:49;;;;;;;11.82;7.25;;;;;;;22.27;47.45;102111.31;5012697;28;20069;-65
2021/07/20 07:03:16;;;;;;;13.57;7.60;;;;;;;22.30;47.75;102110.25;5012254;28;20022;-63
2021/07/20 07:05:42;;;;;;;10.50;7.10;;;;;;;22.28;47.88;102105.03;5012261;28;20054;-66
2021/07/20 07:08:09;;;;;;;11.88;7.25;;;;;;;22.32;47.79;102107.47;5013714;28;20026;-64
2021/07/20 07:10:49;;;;;;;11.50;6.90;;;;;;;22.33;47.35;102106.50;5018995;28;20041;-63
2021/07/20 07:13:22;;;;;;;10.85;7.15;;;;;;;22.34;47.68;102111.72;5017859;28;20026;-64
2021/07/20 07:15:48;;;;;;;11.43;7.03;;;;;;;22.32;47.62;102105.69;5019457;28;20433;-61
2021/07/20 07:18:15;;;;;;;12.20;7.28;;;;;;;22.33;47.49;102106.50;5014148;28;20359;-60
2021/07/20 07:20:42;;;;;;;11.45;7.10;;;;;;;22.35;47.42;102116.06;5013696;28;20025;-59
2021/07/20 07:23:07;;;;;;;10.85;6.60;;;;;;;22.34;47.48;102124.16;5014952;28;20022;-64
2021/07/20 07:25:36;;;;;;;11.57;7.35;;;;;;;22.26;47.46;102106.97;5015944;28;20508;-61
2021/07/20 07:28:03;;;;;;;11.27;7.38;;;;;;;22.35;47.53;102120.50;5014574;28;20048;-62
2021/07/20 07:30:30;;;;;;;9.38;6.47;;;;;;;22.32;47.12;102118.97;5015405;28;20029;-63
2021/07/20 07:32:57;;;;;;;11.02;7.45;;;;;;;22.28;47.21;102112.16;5013005;28;20041;-61
2021/07/20 07:35:23;;;;;;;12.68;7.95;;;;;;;22.34;47.21;102125.00;5016324;28;20119;-66
2021/07/20 07:37:50;;;;;;;10.90;6.78;;;;;;;22.34;47.05;102121.50;5014336;28;20022;-60
2021/07/20 07:40:16;;;;;;;10.48;6.78;;;;;;;22.35;47.00;102126.69;5012679;28;20045;-61
2021/07/20 07:42:46;;;;;;;11.30;7.57;;;;;;;22.36;47.25;102125.69;5017346;28;20018;-62
2021/07/20 07:45:13;;;;;;;12.38;7.45;;;;;;;22.37;47.04;102126.56;5018236;28;20018;-62
2021/07/20 07:47:38;;;;;;;12.40;7.40;;;;;;;22.35;47.15;102134.66;5017921;28;20029;-63
2021/07/20 07:50:09;;;;;;;10.73;7.00;;;;;;;22.31;47.01;102133.19;5019226;28;20030;-63
2021/07/20 07:52:41;;;;;;;11.88;8.00;;;;;;;22.35;47.34;102136.44;5018563;28;20034;-62
2021/07/20 07:55:08;;;;;;;11.18;7.32;;;;;;;22.35;47.15;102132.00;5021709;28;20026;-64
2021/07/20 07:57:34;;;;;;;11.80;7.63;;;;;;;22.32;47.06;102131.38;5021309;28;20133;-64
2021/07/20 08:00:00;;;;;;;11.70;7.15;;;;;;;22.38;47.15;102137.06;5022012;28;20030;-64
2021/07/20 08:02:34;;;;;;;11.90;7.53;;;;;;;22.39;47.17;102135.25;5019862;28;20045;-65
2021/07/20 08:05:00;;;;;;;11.20;7.28;;;;;;;22.37;47.01;102140.69;5020761;28;20025;-63
2021/07/20 08:07:27;;;;;;;9.70;6.93;;;;;;;22.40;46.62;102140.44;5019875;28;20033;-64
2021/07/20 08:09:55;;;;;;;11.55;7.43;;;;;;;22.41;47.00;102136.81;5018790;28;20486;-62
2021/07/20 08:12:23;;;;;;;11.25;7.22;;;;;;;22.41;47.08;102135.97;5020014;28;20083;-64
2021/07/20 08:14:48;;;;;;;12.07;7.15;;;;;;;22.39;46.25;102135.25;5019195;28;20026;-64
2021/07/20 08:17:25;;;;;;;12.20;7.15;;;;;;;22.40;46.48;102136.94;5018401;28;20030;-61
2021/07/20 08:19:52;;;;;;;9.82;6.25;;;;;;;22.40;46.54;102143.09;5018102;28;20124;-65
2021/07/20 08:22:19;;;;;;;10.75;6.78;;;;;;;22.41;46.43;102138.63;5018897;28;20041;-62
2021/07/20 08:24:55;;;;;;;10.32;5.97;;;;;;;22.40;46.55;102134.28;5019443;28;20022;-63
2021/07/20 08:27:25;;;;;;;11.18;6.90;;;;;;;22.44;46.03;102139.22;5019105;28;20066;-63
2021/07/20 08:29:55;;;;;;;10.20;7.00;;;;;;;22.41;46.26;102126.19;5018147;28;20030;-64
2021/07/20 08:32:23;;;;;;;11.85;7.35;;;;;;;22.47;46.19;102130.16;5018679;28;20022;-62
2021/07/20 08:34:58;;;;;;;10.32;6.72;;;;;;;22.44;46.16;102139.22;5017675;28;20109;-68
2021/07/20 08:37:25;;;;;;;10.82;7.15;;;;;;;22.49;46.39;102138.00;5019174;28;20064;-67
2021/07/20 08:39:55;;;;;;;12.38;7.32;;;;;;;22.50;46.43;102131.75;5017405;28;20022;-62
2021/07/20 08:42:45;;;;;;;10.35;6.70;;;;;;;22.53;46.55;102137.66;5017864;28;20026;-62
2021/07/20 08:45:17;;;;;;;10.25;6.00;;;;;;;22.56;47.26;102125.94;5017964;28;20442;-62
2021/07/20 08:47:50;;;;;;;10.00;6.25;;;;;;;22.58;47.30;102124.84;5018155;28;20072;-62
2021/07/20 08:50:28;;;;;;;9.37;6.37;;;;;;;22.56;47.24;102118.81;5017692;28;20030;-64
2021/07/20 08:53:12;;;;;;;10.95;7.25;;;;;;;22.66;47.99;102129.53;5016614;28;20037;-63
2021/07/20 08:55:44;;;;;;;9.88;6.18;;;;;;;22.68;47.64;102129.41;5017902;28;20417;-64
2021/07/20 08:58:24;;;;;;;11.13;7.25;;;;;;;22.67;47.92;102120.59;5016830;28;20532;-66
2021/07/20 09:00:55;;;;;;;10.23;6.90;;;;;;;22.70;47.93;102128.34;5017713;28;20068;-61
2021/07/20 09:03:40;;;;;;;10.13;6.43;;;;;;;22.72;47.85;102118.41;5017051;28;20026;-62
2021/07/20 09:06:06;;;;;;;;;;;;;;;22.76;47.60;102122.50;5017914;28;20026;-62
2021/07/20 09:08:53;;;;;;;10.48;6.65;;;;;;;22.78;47.49;102130.34;5017142;28;19913;-63
2021/07/20 09:11:21;;;;;;;9.88;5.93;;;;;;;22.81;47.76;102130.97;5014341;28;20042;-61
2021/07/20 09:14:11;;;;;;;11.13;7.43;;;;;;;22.78;46.79;102131.22;5016530;28;20477;-65
2021/07/20 09:16:48;;;;;;;10.63;6.32;;;;;;;22.76;47.15;102132.28;5017247;28;20022;-64
2021/07/20 09:19:28;;;;;;;9.85;6.85;;;;;;;22.74;46.49;102124.44;5017554;28;20097;-65
2021/07/20 09:21:59;;;;;;;9.63;6.75;;;;;;;22.74;47.12;102121.78;5018203;28;20497;-63
2021/07/20 09:24:56;;;;;;;10.82;6.28;;;;;;;22.74;47.23;102129.75;5016414;28;20025;-62
2021/07/20 09:27:58;;;;;;;10.55;7.05;;;;;;;22.76;47.15;102135.78;5016484;28;20025;-64
2021/07/20 09:30:30;;;;;;;12.02;6.80;;;;;;;22.77;46.69;102129.50;5016600;28;20041;-62
2021/07/20 09:33:14;;;;;;;10.35;6.55;;;;;;;22.79;46.54;102127.56;5016680;28;20026;-63
2021/07/20 09:35:43;;;;;;;11.02;6.80;;;;;;;22.79;46.96;102127.56;5016257;28;20049;-64
2021/07/20 09:38:09;;;;;;;11.88;6.60;;;;;;;22.78;47.09;102127.69;5017668;28;20033;-61
2021/07/20 09:40:39;;;;;;;12.15;6.57;;;;;;;22.74;46.97;102124.44;5016155;28;20033;-64
2021/07/20 09:43:36;;;;;;;9.75;6.30;;;;;;;22.79;46.96;102130.22;5016144;28;20066;-63
2021/07/20 09:46:20;;;;;;;10.13;6.97;;;;;;;22.83;46.64;102129.00;5007894;28;20092;-63
2021/07/20 09:49:03;;;;;;;10.23;7.07;;;;;;;22.81;46.20;102117.66;5017294;28;20049;-63
2021/07/20 09:52:08;;;;;;;10.50;6.57;;;;;;;22.87;46.18;102128.75;5019496;28;20054;-63
2021/07/20 09:54:52;;;;;;;;;;;;;;;22.87;46.39;102132.25;5017887;28;20022;-63
2021/07/20 09:57:39;;;;;;;11.80;6.73;;;;;;;22.89;46.00;102129.47;5016944;28;19936;-63
2021/07/20 10:04:11;;;;;;;10.70;6.97;;;;;;;22.82;45.67;102127.31;4955812;28;20066;-66
2021/07/20 10:07:28;;;;;;;10.95;7.40;;;;;;;22.73;46.30;102121.91;4994247;28;20030;-64
2021/07/20 10:10:02;;;;;;;10.93;6.60;;;;;;;22.76;46.47;102126.97;4961244;29;20059;-64
2021/07/20 10:12:58;;;;;;;11.25;7.00;;;;;;;22.80;46.16;102131.91;4969990;28;20042;-63
2021/07/20 10:15:49;;;;;;;10.32;6.80;;;;;;;22.76;46.27;102127.81;5018583;28;20034;-64
2021/07/20 10:18:38;;;;;;;10.65;6.40;;;;;;;22.79;47.00;102122.25;5018961;28;20033;-63
2021/07/20 10:21:21;;;;;;;11.30;7.30;;;;;;;22.55;46.67;102084.41;4988849;28;20057;-64
2021/07/20 10:24:23;;;;;;;11.25;6.43;;;;;;;22.76;46.76;102109.19;5020224;28;20029;-64
2021/07/20 10:26:58;;;;;;;11.20;6.53;;;;;;;22.81;46.86;102111.50;5019619;28;20083;-64
2021/07/20 10:30:09;;;;;;;10.52;6.70;;;;;;;22.77;46.89;102099.44;5018994;28;20058;-65
2021/07/20 10:32:59;;;;;;;9.88;6.60;;;;;;;22.84;47.08;102108.59;4958717;29;20027;-64
2021/07/20 10:35:35;;;;;;;11.18;6.70;;;;;;;22.87;47.54;102112.81;4959930;29;20070;-64
2021/07/20 10:38:08;;;;;;;12.05;6.72;;;;;;;22.88;47.27;102107.38;5004677;28;20363;-67
2021/07/20 10:40:35;;;;;;;12.32;7.65;;;;;;;22.89;47.41;102094.91;5016067;28;20022;-65
2021/07/20 10:43:08;;;;;;;10.77;7.43;;;;;;;22.85;47.31;102101.47;5012357;28;20033;-61
2021/07/20 10:45:35;;;;;;;12.52;7.22;;;;;;;22.82;47.20;102099.91;5012673;28;20022;-65
2021/07/20 10:48:05;;;;;;;11.77;7.40;;;;;;;22.78;47.27;102104.63;5012641;28;20065;-64
2021/07/20 10:50:43;;;;;;;12.00;7.20;;;;;;;22.80;47.40;102105.34;5012182;28;20056;-66
2021/07/20 10:53:22;;;;;;;11.23;7.47;;;;;;;22.78;46.96;102099.31;5012969;28;20033;-65
2021/07/20 10:56:07;;;;;;;11.30;6.75;;;;;;;22.81;46.87;102093.75;5013201;28;20030;-64
2021/07/20 10:58:57;;;;;;;11.30;6.90;;;;;;;22.82;46.66;102102.56;5011786;28;20418;-64
2021/07/20 11:01:59;;;;;;;9.65;6.57;;;;;;;22.81;46.85;102096.41;5012489;28;20084;-65
2021/07/20 11:04:43;;;;;;;11.93;6.57;;;;;;;22.77;47.01;102088.81;5011753;28;20108;-65
2021/07/20 11:07:10;;;;;;;12.07;6.90;;;;;;;22.78;47.31;102093.13;5012469;28;20045;-65
2021/07/20 11:09:39;;;;;;;10.93;6.80;;;;;;;22.79;47.07;102095.66;5012538;28;20038;-66
2021/07/20 11:12:07;;;;;;;10.77;7.13;;;;;;;22.82;47.13;102097.25;5011782;28;20120;-65
2021/07/20 11:14:50;;;;;;;10.65;6.97;;;;;;;22.81;46.85;102096.41;5012342;28;20477;-66
2021/07/20 11:17:22;;;;;;;10.15;6.88;;;;;;;22.80;46.81;102086.75;5011407;28;20041;-66
2021/07/20 11:19:51;;;;;;;10.85;6.85;;;;;;;22.83;46.56;102091.81;5011761;28;20497;-65
2021/07/20 11:22:17;;;;;;;11.00;7.43;;;;;;;22.80;46.55;102085.91;5011708;28;20116;-64
2021/07/20 11:24:49;;;;;;;10.25;6.63;;;;;;;22.87;46.89;102086.25;5012457;28;20026;-66
2021/07/20 11:27:22;;;;;;;10.38;6.75;;;;;;;22.81;47.69;102080.47;5011269;28;20026;-67
2021/07/20 11:29:55;;;;;;;11.20;6.78;;;;;;;22.88;47.62;102085.28;5012362;28;20029;-67
2021/07/20 11:32:25;;;;;;;12.20;7.20;;;;;;;22.89;47.88;102078.97;5011612;28;20568;-65
2021/07/20 11:35:19;;;;;;;10.45;7.38;;;;;;;22.92;48.02;102084.03;5012609;28;20026;-64
2021/07/20 11:37:50;;;;;;;10.52;6.80;;;;;;;22.96;47.64;102082.81;5012501;28;20030;-64
2021/07/20 11:40:30;;;;;;;10.10;6.47;;;;;;;22.99;47.23;102087.88;5011083;28;20045;-62
2021/07/20 11:43:04;;;;;;;10.40;7.35;;;;;;;22.99;47.25;102083.41;5012442;28;20367;-62
2021/07/20 11:45:38;;;;;;;11.07;6.95;;;;;;;23.00;47.09;102089.56;5011859;28;20037;-63
2021/07/20 11:48:10;;;;;;;10.90;7.30;;;;;;;23.00;46.68;102082.44;5011299;28;20498;-62